Time;durP1;ratioP1;P1;durP2;ratioP2;P2;SDS_P1;SDS_P2;PMS_P1;PMS_P2;Temp;Humidity;BMP_temperature;BMP_pressure;BME280_temperature;BME280_humidity;BME280_pressure;Samples;Min_cycle;Max_cycle;Signal;HPM_P1;HPM_P2
2023/08/02 00:01:21;;;;;;;7.90;2.05;;;15.30;99.90;;;;;;4990581;28;20053;-71
2023/08/02 00:03:47;;;;;;;6.65;2.10;;;15.30;99.90;;;;;;4990776;28;20046;-71
2023/08/02 00:06:13;;;;;;;8.10;2.28;;;15.40;99.90;;;;;;4990387;28;20054;-71
2023/08/02 00:08:38;;;;;;;6.18;2.05;;;15.40;99.90;;;;;;4990738;28;20050;-72
2023/08/02 00:11:04;;;;;;;5.05;2.35;;;15.40;99.90;;;;;;4990661;28;20049;-70
2023/08/02 00:13:30;;;;;;;10.15;2.30;;;15.40;99.90;;;;;;4990772;28;20038;-71
2023/08/02 00:15:55;;;;;;;7.78;2.50;;;15.40;99.90;;;;;;4985428;28;20102;-73
2023/08/02 00:18:21;;;;;;;8.77;2.08;;;15.40;99.90;;;;;;4978874;28;20497;-71
2023/08/02 00:20:48;;;;;;;5.95;2.15;;;15.30;99.90;;;;;;4989851;28;20038;-72
2023/08/02 00:23:14;;;;;;;4.85;1.92;;;15.30;99.90;;;;;;4972561;28;20050;-71
2023/08/02 00:25:39;;;;;;;5.53;2.00;;;15.30;99.90;;;;;;4990545;28;20105;-71
2023/08/02 00:28:05;;;;;;;5.75;2.10;;;15.40;99.90;;;;;;4990482;28;20143;-71
2023/08/02 00:30:31;;;;;;;5.60;1.70;;;15.40;99.90;;;;;;4989918;28;20050;-70
2023/08/02 00:32:58;;;;;;;5.00;2.00;;;15.40;99.90;;;;;;4990241;28;20145;-71
2023/08/02 00:35:24;;;;;;;7.15;2.20;;;15.40;99.90;;;;;;4989544;28;20030;-70
2023/08/02 00:37:50;;;;;;;6.55;2.40;;;15.40;99.90;;;;;;4989629;28;20097;-70
2023/08/02 00:40:15;;;;;;;4.15;2.00;;;15.40;99.90;;;;;;4972940;28;20049;-70
2023/08/02 00:42:41;;;;;;;6.68;2.20;;;15.40;99.90;;;;;;4990275;28;20042;-70
2023/08/02 00:45:07;;;;;;;8.32;2.20;;;15.40;99.90;;;;;;4990298;28;20509;-71
2023/08/02 00:47:34;;;;;;;6.82;2.33;;;15.40;99.90;;;;;;4971932;28;20145;-70
2023/08/02 00:50:01;;;;;;;9.02;2.15;;;15.40;99.90;;;;;;4972424;28;20054;-70
2023/08/02 00:52:27;;;;;;;16.83;3.13;;;15.40;99.90;;;;;;4989812;28;20046;-70
2023/08/02 00:54:53;;;;;;;9.63;2.63;;;15.40;99.90;;;;;;4990320;28;20478;-71
2023/08/02 00:57:18;;;;;;;9.85;2.90;;;15.40;99.90;;;;;;4990019;28;20561;-71
2023/08/02 00:59:44;;;;;;;8.73;2.70;;;15.40;99.90;;;;;;4972791;28;20121;-70
2023/08/02 01:02:10;;;;;;;8.00;2.60;;;15.40;99.90;;;;;;4971985;28;20093;-70
2023/08/02 01:04:37;;;;;;;7.50;3.03;;;15.30;99.90;;;;;;4990097;28;20045;-71
2023/08/02 01:07:21;;;;;;;9.02;3.35;;;15.40;99.90;;;;;;4972569;28;20078;-71
2023/08/02 01:10:07;;;;;;;7.55;3.03;;;15.40;99.90;;;;;;4983401;28;20057;-70
2023/08/02 01:12:35;;;;;;;9.55;3.35;;;15.30;99.90;;;;;;4990225;28;20046;-72
2023/08/02 01:15:03;;;;;;;9.15;3.55;;;15.50;99.90;;;;;;4972545;28;20466;-71
2023/08/02 01:17:30;;;;;;;8.85;3.30;;;15.40;99.90;;;;;;4989413;28;20125;-71
2023/08/02 01:20:03;;;;;;;8.35;3.38;;;15.40;99.90;;;;;;4989716;28;20126;-72
2023/08/02 01:22:29;;;;;;;11.27;4.15;;;15.40;99.90;;;;;;4972571;28;20046;-70
2023/08/02 01:24:56;;;;;;;10.10;3.90;;;15.40;99.90;;;;;;4989983;28;20042;-71
2023/08/02 01:27:28;;;;;;;7.20;3.58;;;15.40;99.90;;;;;;4989820;28;20051;-71
2023/08/02 01:29:58;;;;;;;10.32;3.63;;;15.40;99.90;;;;;;4989744;28;20449;-71
2023/08/02 01:32:24;;;;;;;10.20;3.90;;;15.40;99.90;;;;;;4988787;28;20034;-70
2023/08/02 01:34:51;;;;;;;8.95;4.10;;;15.30;99.90;;;;;;4989738;28;20440;-71
2023/08/02 01:37:17;;;;;;;12.20;4.30;;;15.40;99.90;;;;;;4989619;28;20532;-72
2023/08/02 01:39:42;;;;;;;10.95;4.38;;;15.30;99.90;;;;;;4989610;28;20042;-70
2023/08/02 01:42:10;;;;;;;13.18;4.50;;;15.40;99.90;;;;;;4989664;28;20042;-71
2023/08/02 01:44:36;;;;;;;13.52;4.53;;;15.40;99.90;;;;;;4989590;28;20502;-71
2023/08/02 01:47:02;;;;;;;11.77;4.13;;;15.30;99.90;;;;;;4989618;28;20050;-73
2023/08/02 01:49:28;;;;;;;11.50;4.55;;;15.30;99.90;;;;;;4992491;28;20789;-71
2023/08/02 01:51:54;;;;;;;14.30;4.60;;;15.30;99.90;;;;;;4993056;28;20100;-70
2023/08/02 01:54:19;;;;;;;9.10;4.18;;;15.30;99.90;;;;;;4993207;28;20060;-72
2023/08/02 01:56:45;;;;;;;9.60;4.03;;;15.40;99.90;;;;;;4992964;28;20038;-71
2023/08/02 01:59:12;;;;;;;12.50;4.15;;;15.40;99.90;;;;;;4975617;28;20101;-71
2023/08/02 02:01:38;;;;;;;8.65;3.38;;;15.50;99.90;;;;;;4992816;28;20043;-71
2023/08/02 02:04:04;;;;;;;9.27;3.80;;;15.30;99.90;;;;;;4992401;28;20577;-71
2023/08/02 02:06:29;;;;;;;9.07;3.92;;;15.40;99.90;;;;;;4992535;28;20125;-71
2023/08/02 02:08:55;;;;;;;13.02;3.50;;;15.30;99.90;;;;;;4992765;28;20034;-71
2023/08/02 02:11:21;;;;;;;9.73;3.30;;;15.40;99.90;;;;;;4992575;28;20034;-69
2023/08/02 02:13:46;;;;;;;7.78;3.45;;;15.30;99.90;;;;;;4992932;28;20839;-72
2023/08/02 02:16:12;;;;;;;13.73;3.35;;;15.30;99.90;;;;;;4992521;28;20042;-72
2023/08/02 02:18:38;;;;;;;9.10;3.08;;;15.30;99.90;;;;;;4992243;28;20042;-70
2023/08/02 02:21:03;;;;;;;7.95;2.95;;;15.30;99.90;;;;;;4992543;28;20077;-71
2023/08/02 02:23:29;;;;;;;7.90;3.15;;;15.30;99.90;;;;;;4992847;28;20460;-70
2023/08/02 02:25:55;;;;;;;9.23;3.20;;;15.30;99.90;;;;;;4992517;28;20042;-70
2023/08/02 02:28:20;;;;;;;10.57;3.38;;;15.30;99.90;;;;;;4992306;28;20042;-72
2023/08/02 02:30:46;;;;;;;12.20;3.38;;;15.40;99.90;;;;;;4992403;28;20042;-71
2023/08/02 02:33:11;;;;;;;13.60;3.25;;;15.40;99.90;;;;;;4992367;28;20042;-70
2023/08/02 02:35:37;;;;;;;10.60;3.35;;;15.30;99.90;;;;;;4991350;28;20056;-71
2023/08/02 02:38:03;;;;;;;9.68;4.05;;;15.40;99.90;;;;;;4992014;28;20054;-70
2023/08/02 02:40:28;;;;;;;12.40;3.30;;;15.30;99.90;;;;;;4992088;28;20100;-71
2023/08/02 02:42:54;;;;;;;9.32;3.67;;;15.30;99.90;;;;;;4990925;28;20121;-70
2023/08/02 02:45:19;;;;;;;12.77;3.15;;;15.30;99.90;;;;;;4984212;28;20042;-70
2023/08/02 02:47:45;;;;;;;11.32;3.00;;;15.30;99.90;;;;;;4974240;28;20046;-71
2023/08/02 02:50:11;;;;;;;6.07;2.75;;;15.30;99.90;;;;;;4988941;28;20034;-71
2023/08/02 02:52:36;;;;;;;7.53;3.17;;;15.30;99.90;;;;;;4986319;28;20549;-72
2023/08/02 02:55:02;;;;;;;9.18;3.25;;;15.30;99.90;;;;;;4991741;28;20700;-70
2023/08/02 02:57:28;;;;;;;8.40;3.42;;;15.30;99.90;;;;;;4991716;28;20425;-68
2023/08/02 02:59:53;;;;;;;7.68;2.78;;;15.30;99.90;;;;;;4986242;28;20487;-70
2023/08/02 03:02:19;;;;;;;9.77;2.95;;;15.20;99.90;;;;;;4991631;28;20042;-70
2023/08/02 03:04:44;;;;;;;9.27;3.30;;;15.30;99.90;;;;;;4974464;28;20042;-72
2023/08/02 03:07:10;;;;;;;9.35;2.95;;;15.20;99.90;;;;;;4990999;28;20498;-70
2023/08/02 03:09:36;;;;;;;8.32;3.45;;;15.20;99.90;;;;;;4973817;28;20129;-70
2023/08/02 03:12:01;;;;;;;10.55;3.50;;;15.30;99.90;;;;;;4991564;28;20085;-70
2023/08/02 03:14:27;;;;;;;8.07;3.42;;;15.20;99.90;;;;;;4991262;28;20417;-70
2023/08/02 03:16:53;;;;;;;8.13;3.42;;;15.30;99.90;;;;;;4986834;28;20129;-71
2023/08/02 03:19:19;;;;;;;12.93;3.70;;;15.30;99.90;;;;;;4987869;28;20513;-71
2023/08/02 03:21:44;;;;;;;8.98;3.13;;;15.20;99.90;;;;;;4991173;28;21346;-70
2023/08/02 03:24:10;;;;;;;8.77;3.50;;;15.20;99.90;;;;;;4991640;28;20050;-70
2023/08/02 03:26:35;;;;;;;11.57;3.20;;;15.20;99.90;;;;;;4991358;28;20039;-70
2023/08/02 03:29:01;;;;;;;17.73;4.07;;;15.20;99.90;;;;;;4991302;28;20153;-70
2023/08/02 03:31:27;;;;;;;9.40;3.35;;;15.20;99.90;;;;;;4990846;28;20057;-69
2023/08/02 03:33:53;;;;;;;16.42;3.72;;;15.20;99.90;;;;;;4991048;28;20052;-71
2023/08/02 03:36:18;;;;;;;15.00;4.28;;;15.20;99.90;;;;;;4990784;28;20540;-69
2023/08/02 03:38:44;;;;;;;20.90;4.30;;;15.20;99.90;;;;;;4982200;28;20047;-70
2023/08/02 03:41:10;;;;;;;17.60;4.50;;;15.20;99.90;;;;;;4991434;28;20050;-70
2023/08/02 03:43:35;;;;;;;15.70;4.53;;;15.20;99.90;;;;;;4991103;28;20046;-70
2023/08/02 03:46:02;;;;;;;13.02;4.78;;;15.20;99.90;;;;;;4973392;28;20050;-70
2023/08/02 03:48:28;;;;;;;15.02;4.45;;;15.10;99.90;;;;;;4990949;28;20047;-70
2023/08/02 03:50:58;;;;;;;16.83;4.78;;;15.10;99.90;;;;;;4990782;28;20050;-71
2023/08/02 03:53:26;;;;;;;18.52;4.68;;;15.10;99.90;;;;;;4986338;28;20037;-72
2023/08/02 03:55:51;;;;;;;19.13;4.72;;;15.10;99.90;;;;;;4986832;28;20170;-70
2023/08/02 03:58:17;;;;;;;23.73;5.18;;;15.10;99.90;;;;;;4990696;28;20129;-71
2023/08/02 04:00:43;;;;;;;16.27;4.80;;;15.20;99.90;;;;;;4990713;28;20402;-71
2023/08/02 04:03:08;;;;;;;21.98;4.88;;;15.10;99.90;;;;;;4990553;28;20050;-70
2023/08/02 04:05:34;;;;;;;12.90;4.47;;;15.10;99.90;;;;;;4985263;28;20055;-71
2023/08/02 04:08:00;;;;;;;18.52;5.00;;;15.10;99.90;;;;;;4985689;28;20046;-70
2023/08/02 04:10:25;;;;;;;18.73;5.43;;;15.10;99.90;;;;;;4982391;28;20405;-70
2023/08/02 04:12:51;;;;;;;18.98;5.25;;;15.20;99.90;;;;;;4990789;28;20457;-70
2023/08/02 04:15:17;;;;;;;21.10;5.40;;;15.20;99.90;;;;;;4990603;28;20073;-71
2023/08/02 04:17:43;;;;;;;19.98;6.32;;;15.10;99.90;;;;;;4990350;28;20704;-70
2023/08/02 04:20:09;;;;;;;17.77;5.22;;;15.20;99.90;;;;;;4990857;28;20049;-71
2023/08/02 04:22:35;;;;;;;20.85;6.47;;;15.20;99.90;;;;;;4971612;28;20046;-70
2023/08/02 04:25:00;;;;;;;23.90;6.03;;;15.10;99.90;;;;;;4985737;28;20047;-71
2023/08/02 04:27:26;;;;;;;21.00;6.00;;;15.10;99.90;;;;;;4986771;28;20073;-71
2023/08/02 04:29:52;;;;;;;15.07;5.97;;;15.20;99.90;;;;;;4990396;28;20057;-70
2023/08/02 04:32:17;;;;;;;15.45;5.45;;;15.10;99.90;;;;;;4972877;28;20058;-71
2023/08/02 04:34:43;;;;;;;17.00;5.75;;;15.10;99.90;;;;;;4990276;28;20046;-70
2023/08/02 04:37:08;;;;;;;15.60;4.95;;;15.10;99.90;;;;;;4989904;28;20389;-70
2023/08/02 04:39:34;;;;;;;16.90;5.03;;;15.00;99.90;;;;;;4989846;28;20057;-70
2023/08/02 04:42:02;;;;;;;14.77;5.47;;;15.00;99.90;;;;;;4990335;28;20046;-71
2023/08/02 04:44:28;;;;;;;14.90;5.90;;;15.10;99.90;;;;;;4990558;28;20093;-71
2023/08/02 04:46:54;;;;;;;15.95;5.50;;;15.00;99.90;;;;;;4990420;28;20046;-70
2023/08/02 04:49:20;;;;;;;19.92;5.60;;;15.10;99.90;;;;;;4981714;28;20093;-70
2023/08/02 04:51:45;;;;;;;19.45;5.75;;;15.00;99.90;;;;;;4990192;28;20085;-70
2023/08/02 04:54:11;;;;;;;21.38;5.90;;;15.00;99.90;;;;;;4984022;28;20469;-71
2023/08/02 04:56:38;;;;;;;16.08;5.47;;;15.00;99.90;;;;;;4990309;28;20046;-70
2023/08/02 04:59:05;;;;;;;18.25;6.10;;;15.00;99.90;;;;;;4989842;28;20042;-70
2023/08/02 05:01:31;;;;;;;12.98;5.20;;;15.00;99.90;;;;;;4990110;28;20049;-70
2023/08/02 05:03:57;;;;;;;17.17;5.78;;;15.00;99.90;;;;;;4967199;28;20378;-71
2023/08/02 05:06:23;;;;;;;16.63;5.95;;;14.80;99.90;;;;;;4988880;28;20057;-70
2023/08/02 05:08:49;;;;;;;18.92;6.05;;;15.00;99.90;;;;;;4989215;28;20412;-70
2023/08/02 05:11:14;;;;;;;21.33;5.93;;;15.10;99.90;;;;;;4971933;28;20039;-70
2023/08/02 05:13:40;;;;;;;18.75;6.40;;;15.00;99.90;;;;;;4990198;28;20046;-71
2023/08/02 05:16:12;;;;;;;23.15;7.05;;;15.00;99.90;;;;;;4990118;28;20044;-70
2023/08/02 05:18:37;;;;;;;15.10;6.10;;;15.00;99.90;;;;;;4989889;28;20413;-70
2023/08/02 05:21:12;;;;;;;16.88;6.68;;;15.00;99.90;;;;;;4989924;28;20046;-70
2023/08/02 05:23:42;;;;;;;15.52;5.95;;;15.00;99.90;;;;;;4989788;28;20042;-70
2023/08/02 05:26:08;;;;;;;16.80;5.95;;;15.00;99.90;;;;;;4988108;28;20096;-69
2023/08/02 05:28:34;;;;;;;20.23;6.65;;;15.00;99.90;;;;;;4993719;28;20050;-70
2023/08/02 05:31:00;;;;;;;15.25;5.95;;;15.00;99.90;;;;;;4975802;28;20138;-70
2023/08/02 05:33:26;;;;;;;20.95;6.40;;;15.00;99.90;;;;;;4993486;28;20080;-70
2023/08/02 05:35:51;;;;;;;16.75;6.05;;;15.00;99.90;;;;;;4993220;28;20484;-70
2023/08/02 05:38:17;;;;;;;16.67;6.38;;;15.00;99.90;;;;;;4987517;28;20046;-71
2023/08/02 05:40:43;;;;;;;16.88;6.30;;;15.10;99.90;;;;;;4990019;28;20117;-70
2023/08/02 05:43:09;;;;;;;20.25;6.18;;;15.10;99.90;;;;;;4993286;28;20113;-70
2023/08/02 05:45:35;;;;;;;14.30;5.93;;;15.20;99.90;;;;;;4993063;28;20050;-70
2023/08/02 05:48:00;;;;;;;18.55;6.70;;;15.20;99.90;;;;;;4992942;28;20543;-70
2023/08/02 05:50:28;;;;;;;12.80;6.20;;;15.20;99.90;;;;;;4993246;28;20050;-69
2023/08/02 05:52:53;;;;;;;16.95;6.15;;;15.30;99.90;;;;;;4992807;28;20042;-69
2023/08/02 05:55:19;;;;;;;16.30;6.40;;;15.30;99.90;;;;;;4984811;28;20049;-70
2023/08/02 05:57:44;;;;;;;18.70;7.05;;;15.30;99.90;;;;;;4993266;28;20441;-71
2023/08/02 06:00:10;;;;;;;18.13;7.13;;;15.40;99.90;;;;;;4992839;28;20038;-71
2023/08/02 06:02:37;;;;;;;16.10;6.43;;;15.30;99.90;;;;;;4975288;28;20109;-72
2023/08/02 06:05:03;;;;;;;18.10;6.53;;;15.40;99.90;;;;;;4992684;28;20113;-69
2023/08/02 06:07:29;;;;;;;12.25;5.93;;;15.40;99.90;;;;;;4984235;28;20569;-71
2023/08/02 06:09:54;;;;;;;17.23;6.68;;;15.40;99.90;;;;;;4984807;28;20038;-70
2023/08/02 06:12:20;;;;;;;19.95;7.43;;;15.50;99.90;;;;;;4992653;28;20144;-71
2023/08/02 06:14:45;;;;;;;18.80;7.60;;;15.40;99.90;;;;;;4993198;28;20061;-71
2023/08/02 06:17:11;;;;;;;14.55;7.07;;;15.50;99.90;;;;;;4992428;28;20132;-70
2023/08/02 06:19:37;;;;;;;13.95;6.93;;;15.60;99.90;;;;;;4984754;28;20495;-69
2023/08/02 06:22:04;;;;;;;15.38;7.60;;;15.60;99.90;;;;;;4984410;28;20457;-71
2023/08/02 06:24:29;;;;;;;18.30;7.32;;;15.60;99.90;;;;;;4983797;28;20046;-71
2023/08/02 06:26:55;;;;;;;14.23;6.97;;;15.60;99.90;;;;;;4992088;28;20397;-71
2023/08/02 06:29:20;;;;;;;13.40;6.65;;;15.70;99.90;;;;;;4992545;28;20054;-70
2023/08/02 06:31:46;;;;;;;14.82;7.45;;;15.80;99.90;;;;;;4992393;28;20117;-71
2023/08/02 06:34:12;;;;;;;20.13;7.85;;;15.80;99.90;;;;;;4990620;28;20468;-73
2023/08/02 06:36:38;;;;;;;19.40;7.97;;;15.80;99.90;;;;;;4983936;28;20132;-68
2023/08/02 06:39:05;;;;;;;15.82;7.38;;;15.80;99.90;;;;;;4991972;28;20053;-73
2023/08/02 06:41:30;;;;;;;14.52;7.65;;;15.90;99.90;;;;;;4991678;28;20404;-70
2023/08/02 06:43:56;;;;;;;14.13;6.72;;;15.90;99.90;;;;;;4992132;28;20050;-71
2023/08/02 06:46:22;;;;;;;22.40;7.65;;;16.00;99.90;;;;;;4992225;28;20042;-73
2023/08/02 06:48:47;;;;;;;15.25;7.20;;;16.00;99.90;;;;;;4991945;28;20058;-74
2023/08/02 06:51:13;;;;;;;15.60;7.75;;;16.10;99.90;;;;;;4991905;28;20500;-73
2023/08/02 06:53:39;;;;;;;17.98;8.18;;;16.10;99.90;;;;;;4991739;28;20038;-72
2023/08/02 06:56:16;;;;;;;19.75;7.18;;;16.10;99.90;;;;;;4991462;28;20617;-72
2023/08/02 06:58:42;;;;;;;17.75;7.97;;;16.10;99.90;;;;;;4991555;28;20085;-72
2023/08/02 07:01:15;;;;;;;16.88;6.80;;;16.20;99.90;;;;;;4991617;28;20038;-71
2023/08/02 07:03:41;;;;;;;17.55;6.78;;;16.20;99.90;;;;;;4992110;28;20511;-71
2023/08/02 07:06:09;;;;;;;19.05;6.80;;;16.30;99.90;;;;;;4991921;28;20305;-71
2023/08/02 07:08:34;;;;;;;13.40;6.30;;;16.30;99.90;;;;;;4978456;28;20042;-72
2023/08/02 07:11:00;;;;;;;13.77;6.38;;;16.40;99.90;;;;;;4992100;28;20048;-74
2023/08/02 07:13:25;;;;;;;16.00;5.97;;;16.30;99.90;;;;;;4991521;28;20073;-69
2023/08/02 07:15:51;;;;;;;16.85;5.70;;;16.30;99.90;;;;;;4991647;28;20109;-71
2023/08/02 07:18:17;;;;;;;16.02;5.60;;;16.40;99.90;;;;;;4991587;28;20146;-71
2023/08/02 07:20:42;;;;;;;13.77;5.25;;;16.30;99.90;;;;;;4991439;28;20042;-73
2023/08/02 07:23:08;;;;;;;15.13;5.72;;;16.40;99.90;;;;;;4991041;28;20057;-70
2023/08/02 07:25:34;;;;;;;14.77;5.25;;;16.30;99.90;;;;;;4983407;28;20096;-73
2023/08/02 07:28:00;;;;;;;12.10;5.38;;;16.30;99.90;;;;;;4973694;28;20058;-72
2023/08/02 07:30:26;;;;;;;15.20;5.18;;;16.30;99.90;;;;;;4991676;28;20089;-71
2023/08/02 07:32:52;;;;;;;19.40;5.05;;;16.30;99.90;;;;;;4991389;28;20068;-71
2023/08/02 07:35:17;;;;;;;11.75;5.00;;;16.30;99.90;;;;;;4973662;28;20113;-69
2023/08/02 07:37:43;;;;;;;12.48;4.47;;;16.30;99.90;;;;;;4990942;28;20073;-70
2023/08/02 07:40:09;;;;;;;12.98;4.85;;;16.30;99.90;;;;;;4990844;28;20392;-69
2023/08/02 07:42:34;;;;;;;30.92;6.20;;;16.30;99.90;;;;;;4973812;28;20038;-70
2023/08/02 07:45:06;;;;;;;10.38;4.43;;;16.30;99.90;;;;;;4990159;28;20839;-70
2023/08/02 07:47:32;;;;;;;13.27;4.50;;;16.30;99.90;;;;;;4988797;28;20092;-72
2023/08/02 07:49:58;;;;;;;12.55;4.43;;;16.30;99.90;;;;;;4973024;28;20058;-71
2023/08/02 07:52:23;;;;;;;15.02;4.53;;;16.20;99.90;;;;;;4990932;28;20050;-71
2023/08/02 07:54:52;;;;;;;14.48;4.63;;;16.20;99.90;;;;;;4986249;28;20081;-71
2023/08/02 07:57:17;;;;;;;13.65;4.50;;;16.20;99.90;;;;;;4990589;28;20061;-72
2023/08/02 07:59:43;;;;;;;15.68;4.80;;;16.20;99.90;;;;;;4991239;28;20038;-74
2023/08/02 08:02:08;;;;;;;10.07;4.10;;;16.20;99.90;;;;;;4972831;28;20058;-71
2023/08/02 08:04:34;;;;;;;15.05;4.25;;;16.10;99.90;;;;;;4973907;28;20042;-71
2023/08/02 08:07:00;;;;;;;10.30;3.35;;;16.10;99.90;;;;;;4991322;28;20050;-71
2023/08/02 08:09:25;;;;;;;12.75;3.90;;;16.20;99.90;;;;;;4990585;28;20083;-72
2023/08/02 08:11:51;;;;;;;11.40;3.60;;;16.10;99.90;;;;;;4991502;28;20092;-70
2023/08/02 08:14:17;;;;;;;11.52;3.88;;;16.10;99.90;;;;;;4990893;28;20046;-71
2023/08/02 08:16:42;;;;;;;11.40;4.00;;;16.00;99.90;;;;;;4990896;28;20046;-70
2023/08/02 08:19:08;;;;;;;11.23;4.45;;;16.00;99.90;;;;;;4984482;28;20071;-72
2023/08/02 08:21:33;;;;;;;9.57;3.28;;;16.00;99.90;;;;;;4987506;28;20073;-71
2023/08/02 08:23:59;;;;;;;9.82;3.63;;;15.90;99.90;;;;;;4981820;28;20603;-70
2023/08/02 08:26:24;;;;;;;10.30;4.15;;;15.90;99.90;;;;;;4991547;28;20054;-73
2023/08/02 08:28:51;;;;;;;9.98;3.85;;;15.90;99.90;;;;;;4973778;28;20057;-71
2023/08/02 08:31:17;;;;;;;8.18;3.10;;;15.90;99.90;;;;;;4990902;28;20140;-71
2023/08/02 08:33:42;;;;;;;9.35;3.90;;;15.90;99.90;;;;;;4991034;28;20078;-71
2023/08/02 08:36:14;;;;;;;13.60;4.15;;;15.90;99.90;;;;;;4991032;28;20104;-74
2023/08/02 08:38:41;;;;;;;13.20;4.60;;;15.80;99.90;;;;;;4991171;28;20097;-70
2023/08/02 08:41:06;;;;;;;13.02;3.90;;;15.80;99.90;;;;;;4990744;28;20070;-71
2023/08/02 08:43:33;;;;;;;12.70;3.60;;;15.70;99.90;;;;;;4991129;28;20213;-72
2023/08/02 08:46:00;;;;;;;16.40;4.43;;;15.80;99.90;;;;;;4990568;28;20046;-72
2023/08/02 08:48:27;;;;;;;7.20;3.47;;;15.70;99.90;;;;;;4990439;28;20082;-69
2023/08/02 08:50:55;;;;;;;12.50;4.65;;;15.70;99.90;;;;;;4990896;28;20085;-70
2023/08/02 08:53:42;;;;;;;9.45;3.40;;;15.60;99.90;;;;;;4990709;28;20042;-70
2023/08/02 08:56:08;;;;;;;10.77;3.83;;;15.60;99.90;;;;;;4990309;28;20107;-70
2023/08/02 08:58:36;;;;;;;11.32;3.60;;;15.60;99.90;;;;;;4994129;28;20723;-72
2023/08/02 09:01:05;;;;;;;8.90;3.75;;;15.60;99.90;;;;;;4976584;28;20062;-70
2023/08/02 09:03:33;;;;;;;10.43;3.13;;;15.60;99.90;;;;;;4994722;28;20058;-71
2023/08/02 09:06:00;;;;;;;13.18;3.95;;;15.60;99.90;;;;;;4994720;28;20046;-70
2023/08/02 09:08:26;;;;;;;9.18;3.78;;;15.60;99.90;;;;;;4994718;28;20081;-71
2023/08/02 09:10:52;;;;;;;8.73;3.17;;;15.60;99.90;;;;;;4994293;28;20547;-69
2023/08/02 09:13:22;;;;;;;10.00;3.83;;;15.70;99.90;;;;;;4994990;28;20054;-71
2023/08/02 09:16:07;;;;;;;8.65;3.92;;;15.70;99.90;;;;;;4994459;28;20074;-70
2023/08/02 09:18:37;;;;;;;7.85;3.35;;;15.60;99.90;;;;;;4994731;28;20050;-71
2023/08/02 09:21:03;;;;;;;7.40;3.53;;;15.70;99.90;;;;;;4994123;28;20097;-71
2023/08/02 09:23:29;;;;;;;8.82;3.47;;;15.70;99.90;;;;;;4994814;28;20436;-73
2023/08/02 09:26:17;;;;;;;8.65;3.67;;;15.80;99.90;;;;;;4994381;28;20127;-71
2023/08/02 09:28:59;;;;;;;8.13;3.70;;;15.80;99.90;;;;;;4994515;28;20084;-70
2023/08/02 09:31:25;;;;;;;7.97;3.65;;;15.80;99.90;;;;;;4993925;28;20114;-72
2023/08/02 09:33:52;;;;;;;8.85;4.25;;;15.80;99.90;;;;;;4979395;28;20151;-73
2023/08/02 09:36:22;;;;;;;11.38;3.70;;;15.70;99.90;;;;;;4994325;28;20125;-74
2023/08/02 09:39:01;;;;;;;8.25;4.50;;;15.70;99.90;;;;;;4984953;28;20042;-70
2023/08/02 09:41:27;;;;;;;8.50;4.20;;;15.80;99.90;;;;;;4983652;28;20555;-73
2023/08/02 09:43:53;;;;;;;8.60;3.83;;;15.90;99.90;;;;;;4985949;28;20118;-71
2023/08/02 09:46:24;;;;;;;11.68;4.70;;;15.90;99.90;;;;;;4987312;28;20048;-74
2023/08/02 09:48:49;;;;;;;11.23;3.95;;;16.00;99.90;;;;;;4987018;28;20505;-74
2023/08/02 09:51:15;;;;;;;8.65;4.55;;;15.90;99.90;;;;;;4972939;28;20105;-75
2023/08/02 09:53:41;;;;;;;10.52;4.47;;;15.90;99.90;;;;;;4985273;28;20051;-72
2023/08/02 09:56:07;;;;;;;11.38;4.45;;;16.10;99.90;;;;;;4983903;28;20054;-74
2023/08/02 09:58:36;;;;;;;7.95;3.85;;;16.00;99.90;;;;;;4989874;28;20417;-71
2023/08/02 10:01:03;;;;;;;10.57;4.32;;;16.00;99.90;;;;;;4973065;28;20584;-75
2023/08/02 10:03:32;;;;;;;6.90;4.22;;;16.10;99.90;;;;;;4976746;28;20158;-75
2023/08/02 10:06:03;;;;;;;7.47;3.45;;;16.10;99.90;;;;;;4993134;28;20497;-73
2023/08/02 10:08:30;;;;;;;8.88;4.00;;;16.00;99.90;;;;;;4968929;28;20043;-75
2023/08/02 10:10:57;;;;;;;9.27;3.75;;;16.00;99.90;;;;;;4991787;28;20058;-73
2023/08/02 10:13:27;;;;;;;8.43;3.70;;;16.00;99.90;;;;;;4993314;28;20050;-71
2023/08/02 10:15:55;;;;;;;7.75;3.55;;;16.00;99.90;;;;;;4973274;28;20043;-73
2023/08/02 10:18:22;;;;;;;9.57;3.30;;;16.20;99.90;;;;;;4992532;28;20109;-75
2023/08/02 10:20:48;;;;;;;7.35;3.17;;;16.40;99.90;;;;;;4973663;28;20402;-73
2023/08/02 10:23:14;;;;;;;6.28;3.20;;;16.00;99.90;;;;;;4991401;28;20046;-74
2023/08/02 10:25:42;;;;;;;7.40;3.30;;;16.10;99.90;;;;;;4991261;28;20053;-69
2023/08/02 10:28:08;;;;;;;7.40;2.95;;;16.00;99.90;;;;;;4988739;28;20053;-75
2023/08/02 10:30:35;;;;;;;5.55;3.03;;;16.10;99.90;;;;;;4992666;28;20104;-76
2023/08/02 10:33:20;;;;;;;6.63;3.08;;;16.10;99.90;;;;;;4992631;28;20050;-74
2023/08/02 10:35:57;;;;;;;5.47;2.90;;;16.10;99.90;;;;;;4992773;28;20085;-74
2023/08/02 10:38:46;;;;;;;6.10;3.08;;;16.10;99.90;;;;;;4991919;28;20539;-76
2023/08/02 10:41:27;;;;;;;6.93;2.95;;;16.10;99.90;;;;;;4985959;28;20034;-76
2023/08/02 10:43:53;;;;;;;6.57;2.85;;;16.20;99.90;;;;;;4985716;28;20043;-76
2023/08/02 10:46:21;;;;;;;5.13;2.70;;;16.10;99.90;;;;;;4989801;28;20454;-75
2023/08/02 10:48:46;;;;;;;5.15;2.78;;;16.20;99.90;;;;;;4992545;28;20089;-74
2023/08/02 10:51:27;;;;;;;5.28;2.30;;;16.20;99.90;;;;;;4983270;28;20086;-70
2023/08/02 10:54:16;;;;;;;3.28;2.10;;;16.20;99.90;;;;;;4953353;28;20042;-70
2023/08/02 10:57:08;;;;;;;5.57;2.28;;;16.30;99.90;;;;;;4981916;28;20388;-70
2023/08/02 10:59:33;;;;;;;4.80;1.75;;;16.40;99.90;;;;;;4980503;28;20489;-70
2023/08/02 11:02:07;;;;;;;3.10;1.60;;;16.40;99.90;;;;;;4965649;28;20046;-70
2023/08/02 11:04:34;;;;;;;2.92;1.40;;;16.40;99.90;;;;;;4980320;28;20109;-70
2023/08/02 11:07:15;;;;;;;3.20;1.65;;;16.50;99.90;;;;;;4988322;28;20118;-70
2023/08/02 11:09:42;;;;;;;3.45;1.55;;;16.60;99.90;;;;;;4982040;28;20121;-70
2023/08/02 11:12:13;;;;;;;2.78;1.48;;;16.50;99.90;;;;;;4988806;28;20108;-70
2023/08/02 11:14:41;;;;;;;1.88;1.00;;;16.50;99.90;;;;;;4966017;28;20047;-70
2023/08/02 11:17:07;;;;;;;2.15;0.90;;;16.50;99.90;;;;;;4992268;28;20061;-70
2023/08/02 11:19:35;;;;;;;1.50;0.95;;;16.50;99.90;;;;;;4968469;28;20129;-74
2023/08/02 11:22:01;;;;;;;3.70;0.95;;;16.50;99.90;;;;;;4989980;28;20129;-71
2023/08/02 11:24:26;;;;;;;4.65;1.10;;;16.60;99.90;;;;;;4989989;28;20129;-72
2023/08/02 11:26:54;;;;;;;2.50;1.00;;;16.50;99.90;;;;;;4972960;28;20049;-74
2023/08/02 11:29:20;;;;;;;1.77;0.77;;;16.60;99.90;;;;;;4991190;28;20053;-73
2023/08/02 11:31:46;;;;;;;1.70;0.90;;;16.70;99.90;;;;;;4990897;28;20498;-73
2023/08/02 11:34:17;;;;;;;1.58;0.93;;;16.70;99.90;;;;;;4989463;28;20476;-74
2023/08/02 11:36:43;;;;;;;2.45;1.10;;;16.80;99.90;;;;;;4985906;28;20043;-74
2023/08/02 11:39:13;;;;;;;3.53;1.10;;;16.90;99.90;;;;;;4982556;28;20046;-70
2023/08/02 11:41:39;;;;;;;2.10;1.13;;;17.00;99.90;;;;;;4971549;28;20123;-74
2023/08/02 11:44:19;;;;;;;1.95;0.90;;;17.10;99.90;;;;;;4971148;28;20145;-74
2023/08/02 11:46:55;;;;;;;1.23;1.00;;;17.10;99.90;;;;;;4982368;28;20094;-71
2023/08/02 11:49:21;;;;;;;2.08;0.90;;;17.20;99.90;;;;;;4991577;28;20065;-71
2023/08/02 11:51:47;;;;;;;8.07;1.30;;;17.40;99.90;;;;;;4985100;28;20054;-71
2023/08/02 11:54:14;;;;;;;1.63;0.90;;;17.50;99.90;;;;;;4982577;28;20047;-74
2023/08/02 11:56:43;;;;;;;2.33;0.70;;;17.70;99.90;;;;;;4988812;28;20043;-71
2023/08/02 11:59:10;;;;;;;3.13;0.80;;;17.80;99.90;;;;;;4984822;28;20066;-72
2023/08/02 12:01:41;;;;;;;1.33;0.73;;;17.90;99.90;;;;;;4983194;28;20074;-74
2023/08/02 12:04:08;;;;;;;1.10;0.75;;;18.00;99.90;;;;;;4990996;28;20137;-71
2023/08/02 12:06:52;;;;;;;1.65;0.70;;;18.10;99.90;;;;;;4987201;28;20521;-75
2023/08/02 12:09:18;;;;;;;2.05;0.88;;;18.20;99.90;;;;;;4969671;28;20053;-71
2023/08/02 12:11:50;;;;;;;1.55;0.90;;;18.40;99.90;;;;;;4987629;28;20040;-71
2023/08/02 12:14:30;;;;;;;1.92;1.20;;;18.50;99.90;;;;;;4986537;28;20048;-71
2023/08/02 12:16:55;;;;;;;1.48;0.80;;;18.40;99.90;;;;;;4987640;28;20081;-74
2023/08/02 12:19:38;;;;;;;2.15;1.02;;;18.50;99.90;;;;;;4988500;28;20081;-72
2023/08/02 12:22:04;;;;;;;2.42;0.90;;;18.50;99.90;;;;;;4990998;28;20463;-72
2023/08/02 12:24:30;;;;;;;1.70;0.95;;;18.60;99.90;;;;;;4986779;28;20154;-70
2023/08/02 12:26:55;;;;;;;4.40;1.10;;;18.60;99.90;;;;;;4991050;28;20045;-71
2023/08/02 12:29:25;;;;;;;2.50;1.30;;;18.60;99.90;;;;;;4991258;28;20118;-72
2023/08/02 12:31:54;;;;;;;2.38;1.05;;;18.50;99.90;;;;;;4989365;28;20141;-75
2023/08/02 12:34:19;;;;;;;1.55;1.13;;;18.60;99.90;;;;;;4990536;28;20485;-74
2023/08/02 12:36:47;;;;;;;2.23;1.20;;;18.70;99.90;;;;;;4990597;28;20053;-74
2023/08/02 12:39:13;;;;;;;2.30;1.30;;;18.90;99.90;;;;;;4991306;28;20049;-74
2023/08/02 12:41:38;;;;;;;2.03;1.30;;;19.10;99.90;;;;;;4983312;28;20051;-71